createdAt,value
2023-04-12T00:01:06.712Z,11.72
2023-04-12T00:03:34.646Z,11.66
2023-04-12T00:06:03.544Z,11.61
2023-04-12T00:08:35.498Z,11.56
2023-04-12T00:11:03.532Z,11.50
2023-04-12T00:13:30.899Z,11.42
2023-04-12T00:15:57.641Z,11.34
2023-04-12T00:18:25.739Z,11.22
2023-04-12T00:20:53.243Z,11.12
2023-04-12T00:23:20.241Z,11.11
2023-04-12T00:25:47.426Z,11.10
2023-04-12T00:28:16.224Z,11.04
2023-04-12T00:30:43.183Z,11.05
2023-04-12T00:33:10.224Z,11.04
2023-04-12T00:35:37.273Z,11.07
2023-04-12T00:38:06.429Z,11.09
2023-04-12T00:40:33.203Z,11.04
2023-04-12T00:42:59.919Z,11.06
2023-04-12T00:45:26.573Z,11.08
2023-04-12T00:47:54.311Z,11.08
2023-04-12T00:50:21.485Z,11.15
2023-04-12T00:52:48.300Z,11.16
2023-04-12T00:55:16.228Z,11.12
2023-04-12T00:57:42.970Z,11.01
2023-04-12T01:00:13.727Z,11.02
2023-04-12T01:02:50.826Z,11.00
2023-04-12T01:05:23.732Z,11.01
2023-04-12T01:08:15.772Z,10.97
2023-04-12T01:10:51.163Z,10.86
2023-04-12T01:13:20.875Z,10.91
2023-04-12T01:16:09.872Z,10.98
2023-04-12T01:18:41.721Z,10.96
2023-04-12T01:21:17.149Z,10.86
2023-04-12T01:23:54.338Z,10.85
2023-04-12T01:26:44.615Z,10.80
2023-04-12T01:29:13.627Z,10.83
2023-04-12T01:31:42.051Z,10.80
2023-04-12T01:34:11.827Z,10.74
2023-04-12T01:36:39.853Z,10.72
2023-04-12T01:39:07.681Z,10.75
2023-04-12T01:41:39.401Z,10.68
2023-04-12T01:44:06.076Z,10.64
2023-04-12T01:46:33.126Z,10.53
2023-04-12T01:48:59.818Z,10.48
2023-04-12T01:51:42.415Z,10.51
2023-04-12T01:54:12.640Z,10.49
2023-04-12T01:56:45.124Z,10.56
2023-04-12T01:59:14.669Z,10.54
2023-04-12T02:01:42.024Z,10.53
2023-04-12T02:04:09.766Z,10.31
2023-04-12T02:06:36.915Z,10.24
2023-04-12T02:09:06.400Z,10.29
2023-04-12T02:11:33.099Z,10.26
2023-04-12T02:13:59.994Z,10.27
2023-04-12T02:16:29.533Z,10.30
2023-04-12T02:18:57.597Z,10.35
2023-04-12T02:21:24.520Z,10.26
2023-04-12T02:23:51.370Z,10.28
2023-04-12T02:26:18.106Z,10.18
2023-04-12T02:28:44.792Z,10.19
2023-04-12T02:31:12.265Z,10.16
2023-04-12T02:33:41.311Z,10.08
2023-04-12T02:36:10.435Z,10.00
2023-04-12T02:38:37.207Z,10.03
2023-04-12T02:41:04.048Z,9.99
2023-04-12T02:43:30.756Z,9.90
2023-04-12T02:45:57.426Z,9.85
2023-04-12T02:48:24.122Z,9.90
2023-04-12T02:50:50.834Z,9.95
2023-04-12T02:53:17.530Z,9.89
2023-04-12T02:55:44.910Z,9.89
2023-04-12T02:58:11.572Z,9.87
2023-04-12T03:00:38.243Z,9.84
2023-04-12T03:03:04.991Z,9.88
2023-04-12T03:05:31.843Z,9.92
2023-04-12T03:07:58.511Z,9.85
2023-04-12T03:10:25.247Z,9.79
2023-04-12T03:12:51.967Z,9.82
2023-04-12T03:15:18.842Z,9.80
2023-04-12T03:17:45.950Z,9.79
2023-04-12T03:20:13.749Z,9.80
2023-04-12T03:22:40.499Z,9.78
2023-04-12T03:25:08.882Z,9.85
2023-04-12T03:27:35.604Z,9.82
2023-04-12T03:30:02.469Z,9.78
2023-04-12T03:32:29.200Z,9.84
2023-04-12T03:34:58.102Z,9.83
2023-04-12T03:37:24.947Z,9.90
2023-04-12T03:39:51.900Z,9.89
2023-04-12T03:42:31.674Z,9.89
2023-04-12T03:44:59.536Z,9.79
2023-04-12T03:47:26.521Z,9.80
2023-04-12T03:50:10.363Z,9.85
2023-04-12T03:52:38.274Z,9.83
2023-04-12T03:55:07.852Z,9.84
2023-04-12T03:57:35.023Z,9.77
2023-04-12T04:00:02.647Z,9.81
2023-04-12T04:02:29.581Z,9.80
2023-04-12T04:04:56.521Z,9.71
2023-04-12T04:07:23.348Z,9.79
2023-04-12T04:09:50.472Z,9.86
2023-04-12T04:12:17.279Z,9.86
2023-04-12T04:14:44.398Z,9.78
2023-04-12T04:17:11.284Z,9.77
2023-04-12T04:19:38.488Z,9.89
2023-04-12T04:22:05.238Z,9.83
2023-04-12T04:24:31.886Z,9.86
2023-04-12T04:26:58.910Z,9.89
2023-04-12T04:29:26.189Z,9.94
2023-04-12T04:31:54.112Z,9.84
2023-04-12T04:34:22.426Z,9.83
2023-04-12T04:36:49.284Z,9.88
2023-04-12T04:39:16.025Z,9.92
2023-04-12T04:41:42.811Z,9.85
2023-04-12T04:44:09.715Z,9.82
2023-04-12T04:46:38.282Z,9.81
2023-04-12T04:49:05.534Z,9.78
2023-04-12T04:51:32.728Z,9.86
2023-04-12T04:53:59.579Z,9.86
2023-04-12T04:56:26.431Z,9.76
2023-04-12T04:58:54.739Z,9.83
2023-04-12T05:01:28.821Z,9.64
2023-04-12T05:03:56.175Z,9.64
2023-04-12T05:06:23.435Z,9.65
2023-04-12T05:08:50.107Z,9.63
2023-04-12T05:11:16.833Z,9.59
2023-04-12T05:13:43.556Z,9.58
2023-04-12T05:16:11.548Z,9.59
2023-04-12T05:18:38.364Z,9.52
2023-04-12T05:21:05.678Z,9.47
2023-04-12T05:23:37.502Z,9.58
2023-04-12T05:26:04.819Z,9.52
2023-04-12T05:28:31.600Z,9.52
2023-04-12T05:30:58.658Z,9.49
2023-04-12T05:33:25.616Z,9.48
2023-04-12T05:35:52.363Z,9.50
2023-04-12T05:38:19.080Z,9.53
2023-04-12T05:40:45.808Z,9.60
2023-04-12T05:43:15.365Z,9.60
2023-04-12T05:45:42.125Z,9.60
2023-04-12T05:48:09.364Z,9.63
2023-04-12T05:50:36.359Z,9.60
2023-04-12T05:53:03.352Z,9.61
2023-04-12T05:55:30.427Z,9.64
2023-04-12T05:57:58.736Z,9.62
2023-04-12T06:00:26.518Z,9.55
2023-04-12T06:02:53.418Z,9.52
2023-04-12T06:05:20.427Z,9.60
2023-04-12T06:07:47.136Z,9.62
2023-04-12T06:10:16.421Z,9.59
2023-04-12T06:12:43.412Z,9.58
2023-04-12T06:15:10.811Z,9.62
2023-04-12T06:17:37.806Z,9.66
2023-04-12T06:20:09.887Z,9.58
2023-04-12T06:22:37.329Z,9.65
2023-04-12T06:25:04.950Z,9.63
2023-04-12T06:27:31.753Z,9.63
2023-04-12T06:29:59.307Z,9.60
2023-04-12T06:32:26.395Z,9.58
2023-04-12T06:34:53.234Z,9.60
2023-04-12T06:37:19.930Z,9.69
2023-04-12T06:39:46.663Z,9.74
2023-04-12T06:42:14.854Z,9.76
2023-04-12T06:44:41.877Z,9.68
2023-04-12T06:47:08.789Z,9.63
2023-04-12T06:49:35.598Z,9.64
2023-04-12T06:52:02.315Z,9.71
2023-04-12T06:54:29.025Z,9.65
2023-04-12T06:56:57.560Z,9.60
2023-04-12T06:59:24.431Z,9.61
2023-04-12T07:01:51.141Z,9.64
2023-04-12T07:04:17.961Z,9.59
2023-04-12T07:06:44.816Z,9.57
2023-04-12T07:09:11.704Z,9.63
2023-04-12T07:11:38.595Z,9.71
2023-04-12T07:14:05.360Z,9.73
2023-04-12T07:16:32.884Z,9.74
2023-04-12T07:19:00.727Z,9.79
2023-04-12T07:21:27.927Z,9.85
2023-04-12T07:23:56.040Z,9.80
2023-04-12T07:26:23.791Z,9.84
2023-04-12T07:28:50.904Z,9.86
2023-04-12T07:31:17.891Z,9.91
2023-04-12T07:33:45.024Z,9.92
2023-04-12T07:36:12.431Z,9.88
2023-04-12T07:38:39.212Z,9.94
2023-04-12T07:41:06.205Z,9.91
2023-04-12T07:43:32.953Z,9.94
2023-04-12T07:46:00.034Z,9.95
2023-04-12T07:48:26.745Z,9.88
2023-04-12T07:50:53.538Z,9.88
2023-04-12T07:53:24.438Z,9.87
2023-04-12T07:55:51.529Z,9.81
2023-04-12T07:58:19.381Z,9.80
2023-04-12T08:00:46.984Z,9.78
2023-04-12T08:03:15.144Z,9.82
2023-04-12T08:05:42.422Z,9.88
2023-04-12T08:08:12.171Z,9.91
2023-04-12T08:10:39.967Z,10.04
2023-04-12T08:13:07.270Z,10.05
2023-04-12T08:15:34.269Z,10.08
2023-04-12T08:18:02.037Z,10.04
2023-04-12T08:20:28.800Z,10.05
2023-04-12T08:22:55.605Z,10.12
2023-04-12T08:25:22.635Z,10.19
2023-04-12T08:27:50.558Z,10.21
2023-04-12T08:30:17.885Z,10.20
2023-04-12T08:32:44.803Z,10.28
2023-04-12T08:35:12.237Z,10.23
2023-04-12T08:37:39.042Z,10.20
2023-04-12T08:40:09.501Z,10.22
2023-04-12T08:42:39.708Z,10.24
2023-04-12T08:45:07.853Z,10.21
2023-04-12T08:47:42.359Z,10.22
2023-04-12T08:50:13.307Z,10.26
2023-04-12T08:52:41.290Z,10.24
2023-04-12T08:55:09.188Z,10.30
2023-04-12T08:57:36.659Z,10.25
2023-04-12T09:00:05.065Z,10.25
2023-04-12T09:02:31.948Z,10.23
2023-04-12T09:04:59.108Z,10.22
2023-04-12T09:07:30.644Z,10.15
2023-04-12T09:09:58.631Z,10.13
2023-04-12T09:12:27.388Z,10.07
2023-04-12T09:15:22.476Z,10.13
2023-04-12T09:17:49.779Z,10.21
2023-04-12T09:20:16.467Z,10.25
2023-04-12T09:22:46.948Z,10.29
2023-04-12T09:25:14.892Z,10.30
2023-04-12T09:27:48.475Z,10.29
2023-04-12T09:30:17.042Z,10.41
2023-04-12T09:32:44.426Z,10.43
2023-04-12T09:35:11.417Z,10.51
2023-04-12T09:37:38.280Z,10.48
2023-04-12T09:40:07.334Z,10.54
2023-04-12T09:42:35.398Z,10.55
2023-04-12T09:45:19.695Z,10.52
2023-04-12T09:47:47.036Z,10.46
2023-04-12T09:50:24.682Z,10.49
2023-04-12T09:52:53.301Z,10.55
2023-04-12T09:55:21.926Z,10.57
2023-04-12T09:57:51.210Z,10.60
2023-04-12T10:00:18.611Z,10.69
2023-04-12T10:02:47.947Z,10.82
2023-04-12T10:05:18.360Z,10.94
2023-04-12T10:07:46.048Z,11.14
2023-04-12T10:10:14.472Z,11.20
2023-04-12T10:12:42.305Z,11.42
2023-04-12T10:15:13.664Z,11.58
2023-04-12T10:17:47.418Z,12.05
2023-04-12T10:20:15.626Z,12.44
2023-04-12T10:22:47.386Z,12.74
2023-04-12T10:25:16.038Z,12.81
2023-04-12T10:27:45.255Z,12.87
2023-04-12T10:30:25.225Z,12.49
2023-04-12T10:33:19.339Z,12.31
2023-04-12T10:35:52.165Z,12.08
2023-04-12T10:38:19.264Z,11.80
2023-04-12T10:41:15.096Z,11.55
2023-04-12T10:43:51.888Z,11.44
2023-04-12T10:46:40.644Z,11.23
2023-04-12T10:49:11.714Z,11.13
2023-04-12T10:51:38.876Z,10.86
2023-04-12T10:54:08.787Z,10.89
2023-04-12T10:56:36.649Z,10.90
2023-04-12T10:59:04.897Z,10.77
2023-04-12T11:01:32.321Z,10.65
2023-04-12T11:04:16.055Z,10.74
2023-04-12T11:06:52.536Z,10.84
2023-04-12T11:09:20.217Z,11.05
2023-04-12T11:11:49.037Z,11.20
2023-04-12T11:14:17.002Z,11.30
2023-04-12T11:17:02.759Z,11.49
2023-04-12T11:19:29.923Z,11.39
2023-04-12T11:21:57.193Z,11.55
2023-04-12T11:24:24.010Z,11.66
2023-04-12T11:26:51.044Z,11.72
2023-04-12T11:29:24.220Z,11.89
2023-04-12T11:31:51.374Z,11.77
2023-04-12T11:34:18.860Z,11.84
2023-04-12T11:36:46.624Z,11.95
2023-04-12T11:39:13.811Z,12.10
2023-04-12T11:41:50.048Z,12.23
2023-04-12T11:44:21.879Z,12.17
2023-04-12T11:46:49.267Z,12.20
2023-04-12T11:49:17.523Z,12.24
2023-04-12T11:51:45.486Z,12.45
2023-04-12T11:54:14.098Z,12.76
2023-04-12T11:56:41.575Z,13.13
2023-04-12T11:59:08.954Z,13.54
2023-04-12T12:01:36.304Z,13.72
2023-04-12T12:04:03.431Z,13.62
2023-04-12T12:06:31.701Z,13.42
2023-04-12T12:08:59.428Z,13.27
2023-04-12T12:11:27.664Z,13.30
2023-04-12T12:13:56.302Z,13.18
2023-04-12T12:16:28.355Z,13.34
2023-04-12T12:18:55.806Z,13.38
2023-04-12T12:21:23.289Z,13.59
2023-04-12T12:23:51.986Z,13.72
2023-04-12T12:26:26.597Z,13.75
2023-04-12T12:28:55.806Z,13.60
2023-04-12T12:31:24.531Z,13.51
2023-04-12T12:33:57.118Z,13.51
2023-04-12T12:36:38.966Z,13.31
2023-04-12T12:39:11.408Z,13.19
2023-04-12T12:41:39.252Z,13.20
2023-04-12T12:44:08.487Z,13.31
2023-04-12T12:49:04.970Z,13.45
2023-04-12T12:51:31.719Z,13.51
2023-04-12T12:53:58.578Z,13.94
2023-04-12T12:56:25.479Z,14.12
2023-04-12T12:58:52.239Z,14.22
2023-04-12T13:01:18.966Z,14.02
2023-04-12T13:03:45.886Z,14.08
2023-04-12T13:06:12.670Z,14.19
2023-04-12T13:08:39.393Z,14.25
2023-04-12T13:11:06.635Z,14.09
2023-04-12T13:13:33.426Z,14.04
2023-04-12T13:16:00.195Z,13.90
2023-04-12T13:18:27.026Z,13.85
2023-04-12T13:20:53.766Z,13.59
2023-04-12T13:23:20.762Z,13.52
2023-04-12T13:25:47.433Z,13.48
2023-04-12T13:28:17.009Z,13.36
2023-04-12T13:30:43.773Z,13.23
2023-04-12T13:33:10.720Z,13.23
2023-04-12T13:35:38.186Z,13.28
2023-04-12T13:38:04.994Z,13.10
2023-04-12T13:40:31.655Z,12.99
2023-04-12T13:42:58.731Z,12.55
2023-04-12T13:45:25.741Z,12.31
2023-04-12T13:47:52.540Z,11.99
2023-04-12T13:50:19.298Z,11.84
2023-04-12T13:52:46.478Z,11.57
2023-04-12T13:55:13.225Z,11.37
2023-04-12T13:57:39.911Z,11.47
2023-04-12T14:00:07.541Z,11.83
2023-04-12T14:02:34.427Z,11.81
2023-04-12T14:05:01.482Z,11.75
2023-04-12T14:07:29.607Z,11.56
2023-04-12T14:09:57.932Z,11.21
2023-04-12T14:12:24.683Z,11.01
2023-04-12T14:14:57.428Z,10.88
2023-04-12T14:17:24.445Z,10.82
2023-04-12T14:19:51.689Z,10.64
2023-04-12T14:22:18.400Z,10.54
2023-04-12T14:24:45.068Z,10.53
2023-04-12T14:27:12.913Z,10.66
2023-04-12T14:29:40.071Z,10.72
2023-04-12T14:32:06.770Z,10.81
2023-04-12T14:34:34.208Z,10.80
2023-04-12T14:37:00.996Z,10.80
2023-04-12T14:39:28.038Z,10.78
2023-04-12T14:41:54.827Z,10.91
2023-04-12T14:44:23.845Z,11.17
2023-04-12T14:46:52.333Z,11.24
2023-04-12T14:49:18.981Z,11.19
2023-04-12T14:51:46.019Z,10.98
2023-04-12T14:54:12.706Z,10.85
2023-04-12T14:56:46.295Z,10.85
2023-04-12T14:59:16.634Z,10.85
2023-04-12T15:01:44.082Z,10.70
2023-04-12T15:04:11.319Z,10.42
2023-04-12T15:06:45.195Z,10.42
2023-04-12T15:09:14.016Z,10.31
2023-04-12T15:11:46.410Z,10.30
2023-04-12T15:14:20.112Z,10.22
2023-04-12T15:16:49.413Z,10.15
2023-04-12T15:19:20.652Z,9.88
2023-04-12T15:21:55.330Z,10.00
2023-04-12T15:24:22.690Z,10.22
2023-04-12T15:26:51.035Z,10.29
2023-04-12T15:29:18.133Z,10.43
2023-04-12T15:31:45.155Z,10.72
2023-04-12T15:34:13.549Z,10.94
2023-04-12T15:36:41.362Z,11.36
2023-04-12T15:39:08.106Z,11.57
2023-04-12T15:41:38.177Z,11.75
2023-04-12T15:44:05.752Z,12.28
2023-04-12T15:46:32.693Z,12.85
2023-04-12T15:49:00.382Z,13.20
2023-04-12T15:51:30.363Z,13.37
2023-04-12T15:53:57.523Z,12.87
2023-04-12T15:56:25.636Z,13.24
2023-04-12T15:58:53.357Z,12.72
2023-04-12T16:01:20.420Z,12.28
2023-04-12T16:03:48.918Z,11.96
2023-04-12T16:06:19.820Z,11.80
2023-04-12T16:08:54.894Z,11.29
2023-04-12T16:11:23.994Z,10.98
2023-04-12T16:13:51.744Z,10.91
2023-04-12T16:16:19.884Z,10.85
2023-04-12T16:18:47.000Z,10.70
2023-04-12T16:21:19.952Z,10.72
2023-04-12T16:23:48.459Z,10.57
2023-04-12T16:26:17.540Z,10.41
2023-04-12T16:28:48.153Z,10.29
2023-04-12T16:31:19.958Z,10.37
2023-04-12T16:33:51.161Z,10.26
2023-04-12T16:36:18.743Z,10.24
2023-04-12T16:38:45.951Z,10.24
2023-04-12T16:41:12.712Z,10.24
2023-04-12T16:43:39.370Z,10.26
2023-04-12T16:46:07.486Z,10.34
2023-04-12T16:48:35.750Z,10.30
2023-04-12T16:51:03.654Z,10.32
2023-04-12T16:53:31.078Z,10.45
2023-04-12T16:56:01.882Z,10.52
2023-04-12T16:58:29.101Z,10.60
2023-04-12T17:00:56.213Z,10.91
2023-04-12T17:03:24.447Z,10.92
2023-04-12T17:05:51.475Z,10.96
2023-04-12T17:08:18.215Z,11.10
2023-04-12T17:10:45.013Z,11.29
2023-04-12T17:13:11.868Z,11.30
2023-04-12T17:15:38.559Z,11.29
2023-04-12T17:18:10.094Z,11.15
2023-04-12T17:20:37.716Z,10.99
2023-04-12T17:23:05.207Z,10.95
2023-04-12T17:25:32.690Z,10.91
2023-04-12T17:28:00.381Z,10.91
2023-04-12T17:30:27.498Z,10.94
2023-04-12T17:32:54.621Z,10.71
2023-04-12T17:35:21.400Z,10.66
2023-04-12T17:37:48.632Z,10.74
2023-04-12T17:40:15.711Z,10.66
2023-04-12T17:42:43.626Z,10.70
2023-04-12T17:45:12.767Z,10.69
2023-04-12T17:47:41.199Z,10.71
2023-04-12T17:50:09.251Z,10.71
2023-04-12T17:52:36.393Z,10.63
2023-04-12T17:55:07.721Z,10.60
2023-04-12T17:57:34.634Z,10.61
2023-04-12T18:00:01.455Z,10.56
2023-04-12T18:02:28.363Z,10.57
2023-04-12T18:04:55.522Z,10.63
2023-04-12T18:07:23.139Z,10.58
2023-04-12T18:09:50.878Z,10.50
2023-04-12T18:12:17.679Z,10.50
2023-04-12T18:14:45.280Z,10.45
2023-04-12T18:17:12.069Z,10.39
2023-04-12T18:19:38.828Z,10.30
2023-04-12T18:22:05.940Z,10.34
2023-04-12T18:24:32.872Z,10.33
2023-04-12T18:27:00.559Z,10.34
2023-04-12T18:29:27.327Z,10.24
2023-04-12T18:31:54.172Z,10.17
2023-04-12T18:34:21.214Z,10.18
2023-04-12T18:36:47.951Z,10.20
2023-04-12T18:39:14.858Z,10.22
2023-04-12T18:41:41.775Z,10.22
2023-04-12T18:44:09.642Z,10.15
2023-04-12T18:46:36.900Z,10.22
2023-04-12T18:49:06.514Z,10.19
2023-04-12T18:51:33.332Z,10.13
2023-04-12T18:54:00.879Z,10.13
2023-04-12T18:56:28.065Z,10.04
2023-04-12T18:58:56.320Z,10.04
2023-04-12T19:01:24.119Z,9.97
2023-04-12T19:03:51.179Z,9.99
2023-04-12T19:06:18.401Z,10.03
2023-04-12T19:08:45.631Z,9.92
2023-04-12T19:11:12.600Z,9.93
2023-04-12T19:13:39.309Z,9.91
2023-04-12T19:16:09.556Z,9.76
2023-04-12T19:18:36.360Z,9.69
2023-04-12T19:21:03.607Z,9.72
2023-04-12T19:23:30.721Z,9.73
2023-04-12T19:26:00.187Z,9.70
2023-04-12T19:28:27.733Z,9.68
2023-04-12T19:30:54.983Z,9.71
2023-04-12T19:33:21.644Z,9.66
2023-04-12T19:35:48.468Z,9.65
2023-04-12T19:38:15.906Z,9.69
2023-04-12T19:40:43.252Z,9.74
2023-04-12T19:43:10.061Z,9.73
2023-04-12T19:45:36.886Z,9.73
2023-04-12T19:48:03.773Z,9.73
2023-04-12T19:50:31.331Z,9.70
2023-04-12T19:52:58.043Z,9.62
2023-04-12T19:55:25.396Z,9.63
2023-04-12T19:57:52.261Z,9.64
2023-04-12T20:00:23.390Z,9.62
2023-04-12T20:02:51.442Z,9.56
2023-04-12T20:05:19.933Z,9.56
2023-04-12T20:07:46.688Z,9.54
2023-04-12T20:10:15.632Z,9.56
2023-04-12T20:12:42.521Z,9.47
2023-04-12T20:15:11.801Z,9.51
2023-04-12T20:17:41.238Z,9.43
2023-04-12T20:20:10.883Z,9.33
2023-04-12T20:22:39.165Z,9.24
2023-04-12T20:25:06.210Z,9.14
2023-04-12T20:27:33.826Z,9.07
2023-04-12T20:30:00.882Z,9.06
2023-04-12T20:32:27.764Z,8.93
2023-04-12T20:34:54.894Z,8.88
2023-04-12T20:37:21.893Z,8.90
2023-04-12T20:39:48.656Z,8.80
2023-04-12T20:42:18.884Z,8.78
2023-04-12T20:44:45.750Z,8.77
2023-04-12T20:47:12.740Z,8.72
2023-04-12T20:49:39.476Z,8.68
2023-04-12T20:52:06.194Z,8.70
2023-04-12T20:54:34.113Z,8.73
2023-04-12T20:57:01.024Z,8.75
2023-04-12T20:59:29.801Z,8.64
2023-04-12T21:01:58.425Z,8.59
2023-04-12T21:04:27.941Z,8.67
2023-04-12T21:06:57.757Z,8.69
2023-04-12T21:09:24.879Z,8.74
2023-04-12T21:11:52.803Z,8.78
2023-04-12T21:14:20.826Z,8.75
2023-04-12T21:16:51.088Z,8.74
2023-04-12T21:19:18.629Z,8.77
2023-04-12T21:21:46.180Z,8.75
2023-04-12T21:24:13.386Z,8.75
2023-04-12T21:26:40.543Z,8.66
2023-04-12T21:29:07.224Z,8.55
2023-04-12T21:31:34.049Z,8.55
2023-04-12T21:34:00.820Z,8.52
2023-04-12T21:36:28.839Z,8.48
2023-04-12T21:38:56.604Z,8.47
2023-04-12T21:41:25.256Z,8.51
2023-04-12T21:43:52.465Z,8.40
2023-04-12T21:46:19.520Z,8.45
2023-04-12T21:48:46.423Z,8.36
2023-04-12T21:51:13.276Z,8.32
2023-04-12T21:53:40.143Z,8.27
2023-04-12T21:56:07.396Z,8.16
2023-04-12T21:58:34.361Z,8.17
2023-04-12T22:01:01.357Z,8.26
2023-04-12T22:03:28.463Z,8.26
2023-04-12T22:06:04.418Z,8.22
2023-04-12T22:08:33.288Z,8.32
2023-04-12T22:11:00.500Z,8.36
2023-04-12T22:13:27.619Z,8.36
2023-04-12T22:15:54.338Z,8.33
2023-04-12T22:18:21.086Z,8.33
2023-04-12T22:20:48.184Z,8.27
2023-04-12T22:23:18.328Z,8.29
2023-04-12T22:25:45.817Z,8.28
2023-04-12T22:28:12.680Z,8.19
2023-04-12T22:30:39.742Z,8.22
2023-04-12T22:33:08.624Z,8.24
2023-04-12T22:35:36.622Z,8.22
2023-04-12T22:38:04.308Z,8.22
2023-04-12T22:40:31.077Z,8.24
2023-04-12T22:42:58.399Z,8.22
2023-04-12T22:45:25.427Z,8.20
2023-04-12T22:47:53.144Z,8.16
2023-04-12T22:50:20.142Z,8.13
2023-04-12T22:52:50.218Z,8.20
2023-04-12T22:55:18.346Z,8.21
2023-04-12T22:57:45.171Z,8.22
2023-04-12T23:00:17.015Z,8.25
2023-04-12T23:02:46.437Z,8.22
2023-04-12T23:05:14.260Z,8.27
2023-04-12T23:07:41.679Z,8.29
2023-04-12T23:10:09.243Z,8.31
2023-04-12T23:12:37.528Z,8.25
2023-04-12T23:15:06.278Z,8.26
2023-04-12T23:17:33.026Z,8.24
2023-04-12T23:20:02.195Z,8.25
2023-04-12T23:22:55.022Z,8.25
2023-04-12T23:25:44.900Z,8.30
2023-04-12T23:28:14.317Z,8.29
2023-04-12T23:30:49.175Z,8.26
2023-04-12T23:33:18.359Z,8.20
2023-04-12T23:35:46.332Z,8.23
2023-04-12T23:38:16.073Z,8.19
2023-04-12T23:40:43.666Z,8.23
2023-04-12T23:43:11.087Z,8.27
2023-04-12T23:45:38.635Z,8.36
2023-04-12T23:48:07.220Z,8.39
2023-04-12T23:50:34.293Z,8.39
2023-04-12T23:53:01.106Z,8.36
2023-04-12T23:55:27.798Z,8.36
2023-04-12T23:57:54.612Z,8.32
